Time;durP1;ratioP1;P1;durP2;ratioP2;P2;SDS_P1;SDS_P2;PMS_P1;PMS_P2;Temp;Humidity;BMP_temperature;BMP_pressure;BME280_temperature;BME280_humidity;BME280_pressure;Samples;Min_cycle;Max_cycle;Signal;HPM_P1;HPM_P2
2022/10/31 00:01:20;;;;;;;;;;;;;;;10.01;65.34;99837.54;1713591;82;20406;-70
2022/10/31 00:03:47;;;;;;;;;;;;;;;10.00;65.35;99836.70;1713213;82;21876;-71
2022/10/31 00:06:14;;;;;;;;;;;;;;;10.01;65.39;99833.58;1719391;82;20493;-70
2022/10/31 00:08:40;;;;;;;;;;;;;;;10.02;65.39;99829.97;1725692;80;20168;-72
2022/10/31 00:11:09;;;;;;;;;;;;;;;10.03;65.36;99829.00;1748215;80;20222;-71
2022/10/31 00:13:36;;;;;;;;;;;;;;;10.01;65.39;99826.98;1757053;81;20411;-70
2022/10/31 00:16:05;;;;;;;;;;;;;;;10.00;65.44;99835.88;1754218;80;20508;-70
2022/10/31 00:18:31;;;;;;;;;;;;;;;9.98;65.52;99837.33;1744721;80;20260;-70
2022/10/31 00:21:01;;;;;;;;;;;;;;;10.00;65.55;99841.15;1747418;80;20172;-70
2022/10/31 00:23:29;;;;;;;;;;;;;;;10.00;65.57;99841.15;1729913;82;20113;-70
2022/10/31 00:26:01;;;;;;;;;;;;;;;9.97;65.65;99835.66;1717722;80;21407;-70
2022/10/31 00:28:30;;;;;;;;;;;;;;;9.97;65.81;99836.14;1705728;83;21839;-70
2022/10/31 00:31:03;;;;;;;;;;;;;;;9.97;65.80;99838.78;1709106;83;20724;-70
2022/10/31 00:33:33;;;;;;;;;;;;;;;9.96;65.89;99838.43;1709180;83;20135;-70
2022/10/31 00:36:00;;;;;;;;;;;;;;;9.96;65.90;99830.52;1707466;83;20480;-71
2022/10/31 00:38:26;;;;;;;;;;;;;;;9.96;66.01;99827.88;1708815;83;20734;-71
2022/10/31 00:40:54;;;;;;;;;;;;;;;9.95;66.01;99824.41;1705186;83;21346;-71
2022/10/31 00:43:20;;;;;;;;;;;;;;;9.95;66.05;99813.86;1712452;81;20153;-71
2022/10/31 00:45:48;;;;;;;;;;;;;;;9.94;66.08;99817.91;1708818;83;20124;-70
2022/10/31 00:48:15;;;;;;;;;;;;;;;9.92;66.08;99827.28;1710801;82;20424;-70
2022/10/31 00:50:42;;;;;;;;;;;;;;;9.92;66.07;99833.05;1708774;83;20149;-72
2022/10/31 00:53:09;;;;;;;;;;;;;;;9.89;66.26;99817.00;1738182;80;22937;-71
2022/10/31 00:55:35;;;;;;;;;;;;;;;9.85;66.39;99810.81;1754003;80;20755;-70
2022/10/31 00:58:02;;;;;;;;;;;;;;;9.84;66.51;99820.98;1759179;81;20280;-70
2022/10/31 01:00:29;;;;;;;;;;;;;;;9.82;66.53;99815.02;1740066;80;20515;-71
2022/10/31 01:02:56;;;;;;;;;;;;;;;9.81;66.58;99818.63;1707789;83;20136;-70
2022/10/31 01:05:22;;;;;;;;;;;;;;;9.78;66.72;99810.50;1705429;83;21808;-70
2022/10/31 01:07:49;;;;;;;;;;;;;;;9.75;66.84;99805.00;1704061;83;20719;-71
2022/10/31 01:10:17;;;;;;;;;;;;;;;9.74;66.99;99805.11;1705532;82;20159;-72
2022/10/31 01:12:45;;;;;;;;;;;;;;;9.73;67.02;99800.80;1707033;82;20420;-71
2022/10/31 01:15:15;;;;;;;;;;;;;;;9.72;67.02;99799.14;1708432;83;20177;-71
2022/10/31 01:17:42;;;;;;;;;;;;;;;9.71;67.11;99801.42;1708187;82;21839;-71
2022/10/31 01:20:12;;;;;;;;;;;;;;;9.69;67.26;99800.23;1708423;83;20309;-70
2022/10/31 01:22:39;;;;;;;;;;;;;;;9.68;67.25;99805.17;1715943;82;20199;-70
2022/10/31 01:25:07;;;;;;;;;;;;;;;9.67;67.31;99799.55;1722073;82;20461;-70
2022/10/31 01:27:33;;;;;;;;;;;;;;;9.63;67.42;99808.66;1725355;82;20575;-71
2022/10/31 01:29:59;;;;;;;;;;;;;;;9.60;67.55;99816.84;1719002;82;21680;-71
2022/10/31 01:32:28;;;;;;;;;;;;;;;9.59;67.65;99805.11;1725722;82;20695;-71
2022/10/31 01:34:55;;;;;;;;;;;;;;;9.57;67.74;99807.05;1710612;81;20150;-71
2022/10/31 01:37:22;;;;;;;;;;;;;;;9.53;67.91;99799.02;1704758;83;21260;-71
2022/10/31 01:39:49;;;;;;;;;;;;;;;9.52;67.98;99801.31;1705248;83;20214;-71
2022/10/31 01:42:17;;;;;;;;;;;;;;;9.50;68.18;99809.83;1707006;83;21874;-71
2022/10/31 01:44:53;;;;;;;;;;;;;;;9.49;68.27;99803.73;1703854;83;20145;-71
2022/10/31 01:47:23;;;;;;;;;;;;;;;9.50;68.33;99800.61;1708647;83;20134;-71
2022/10/31 01:49:53;;;;;;;;;;;;;;;9.51;68.37;99805.74;1707990;82;20650;-72
2022/10/31 01:52:23;;;;;;;;;;;;;;;9.50;68.36;99805.39;1709079;82;20172;-71
2022/10/31 01:55:10;;;;;;;;;;;;;;;9.50;68.37;99807.20;1709583;83;21872;-71
2022/10/31 01:57:37;;;;;;;;;;;;;;;9.47;68.40;99803.02;1706244;83;20949;-71
2022/10/31 02:00:06;;;;;;;;;;;;;;;9.41;68.47;99796.94;1709045;82;20597;-71
2022/10/31 02:02:34;;;;;;;;;;;;;;;9.38;68.73;99797.20;1699667;83;21404;-71
2022/10/31 02:05:02;;;;;;;;;;;;;;;9.35;68.72;99802.71;1707040;83;20444;-71
2022/10/31 02:07:45;;;;;;;;;;;;;;;9.33;68.81;99792.78;1690350;83;21901;-70
2022/10/31 02:10:13;;;;;;;;;;;;;;;9.31;68.90;99794.23;1685522;83;20191;-70
2022/10/31 02:12:39;;;;;;;;;;;;;;;9.28;69.01;99796.30;1688169;83;20179;-71
2022/10/31 02:15:08;;;;;;;;;;;;;;;9.26;69.13;99802.16;1694059;83;20446;-70
2022/10/31 02:17:34;;;;;;;;;;;;;;;9.26;69.11;99798.20;1689545;83;20171;-71
2022/10/31 02:20:19;;;;;;;;;;;;;;;9.22;69.27;99788.41;1688446;83;21801;-70
2022/10/31 02:23:09;;;;;;;;;;;;;;;9.22;69.45;99788.89;1699525;82;20815;-70
2022/10/31 02:25:55;;;;;;;;;;;;;;;9.18;69.43;99803.65;1715976;81;20181;-71
2022/10/31 02:28:36;;;;;;;;;;;;;;;9.13;69.55;99799.23;1710603;82;20457;-70
2022/10/31 02:31:08;;;;;;;;;;;;;;;9.11;69.68;99797.69;1706748;83;20176;-70
2022/10/31 02:33:39;;;;;;;;;;;;;;;9.08;69.88;99812.44;1707944;83;22241;-72
2022/10/31 02:36:18;;;;;;;;;;;;;;;9.08;69.94;99806.69;1705607;83;20548;-69
2022/10/31 02:38:51;;;;;;;;;;;;;;;9.08;69.93;99813.76;1708195;82;20166;-70
2022/10/31 02:41:28;;;;;;;;;;;;;;;9.06;70.16;99806.44;1705684;83;20374;-70
2022/10/31 02:44:24;;;;;;;;;;;;;;;9.04;70.19;99802.61;1708597;81;20144;-70
2022/10/31 02:46:57;;;;;;;;;;;;;;;9.06;70.10;99811.22;1706828;83;22579;-70
2022/10/31 02:49:39;;;;;;;;;;;;;;;9.03;70.30;99819.39;1711351;82;38316;-70
2022/10/31 02:52:27;;;;;;;;;;;;;;;9.00;70.42;99810.42;1706512;83;20224;-71
2022/10/31 02:54:56;;;;;;;;;;;;;;;8.98;70.59;99816.79;1703264;83;20887;-70
2022/10/31 02:57:28;;;;;;;;;;;;;;;8.98;70.61;99816.79;1720038;82;20171;-71
2022/10/31 03:00:02;;;;;;;;;;;;;;;8.97;70.62;99816.41;1735204;80;21773;-71
2022/10/31 03:02:56;;;;;;;;;;;;;;;8.93;70.76;99812.36;1751076;80;20198;-70
2022/10/31 03:05:32;;;;;;;;;;;;;;;8.89;70.95;99811.79;1741874;80;20459;-70
2022/10/31 03:08:27;;;;;;;;;;;;;;;8.87;70.90;99818.95;1751214;80;20418;-70
2022/10/31 03:10:57;;;;;;;;;;;;;;;8.88;70.91;99820.66;1750879;80;20896;-70
2022/10/31 03:13:40;;;;;;;;;;;;;;;8.87;70.96;99825.05;1750887;80;21808;-70
2022/10/31 03:16:18;;;;;;;;;;;;;;;8.86;71.12;99824.70;1750395;80;20169;-71
2022/10/31 03:19:00;;;;;;;;;;;;;;;8.86;71.11;99814.65;1750524;80;20396;-70
2022/10/31 03:21:36;;;;;;;;;;;;;;;8.85;71.15;99823.52;1749109;80;20439;-71
2022/10/31 03:24:02;;;;;;;;;;;;;;;8.83;71.19;99820.17;1735577;80;20783;-71
2022/10/31 03:26:28;;;;;;;;;;;;;;;8.79;71.28;99820.91;1719557;82;21997;-71
2022/10/31 03:29:00;;;;;;;;;;;;;;;8.78;71.42;99827.59;1712805;82;20163;-71
2022/10/31 03:31:30;;;;;;;;;;;;;;;8.77;71.38;99824.61;1721526;82;20176;-70
2022/10/31 03:33:58;;;;;;;;;;;;;;;8.75;71.54;99832.64;1716683;82;21120;-70
2022/10/31 03:36:26;;;;;;;;;;;;;;;8.72;71.66;99828.95;1708158;82;20194;-71
2022/10/31 03:38:53;;;;;;;;;;;;;;;8.72;71.71;99828.95;1708352;83;21794;-70
2022/10/31 03:41:21;;;;;;;;;;;;;;;8.71;71.71;99831.70;1703755;83;20150;-71
2022/10/31 03:43:54;;;;;;;;;;;;;;;8.70;71.71;99839.25;1704067;83;20138;-70
2022/10/31 03:46:22;;;;;;;;;;;;;;;8.67;71.84;99832.89;1701532;83;20248;-70
2022/10/31 03:48:49;;;;;;;;;;;;;;;8.67;71.80;99840.79;1703194;83;20213;-71
2022/10/31 03:51:29;;;;;;;;;;;;;;;8.66;71.87;99838.64;1711652;81;21832;-71
2022/10/31 03:53:58;;;;;;;;;;;;;;;8.65;71.88;99838.77;1709232;80;20829;-70
2022/10/31 03:56:35;;;;;;;;;;;;;;;8.63;71.94;99838.05;1750745;80;20190;-70
2022/10/31 03:59:08;;;;;;;;;;;;;;;8.60;71.95;99840.46;1747355;80;20395;-70
2022/10/31 04:01:37;;;;;;;;;;;;;;;8.58;72.12;99846.30;1714841;82;20629;-69
2022/10/31 04:04:03;;;;;;;;;;;;;;;8.59;72.08;99848.00;1716215;82;21843;-70
2022/10/31 04:06:30;;;;;;;;;;;;;;;8.56;72.24;99849.06;1723826;81;20541;-71
2022/10/31 04:09:00;;;;;;;;;;;;;;;8.56;72.31;99850.38;1707849;81;20144;-70
2022/10/31 04:11:34;;;;;;;;;;;;;;;8.59;72.36;99856.73;1705526;83;20164;-70
2022/10/31 04:14:09;;;;;;;;;;;;;;;8.62;72.38;99859.59;1688996;83;20445;-70
2022/10/31 04:16:42;;;;;;;;;;;;;;;8.65;72.32;99858.51;1689805;83;22024;-70
2022/10/31 04:19:11;;;;;;;;;;;;;;;8.68;72.31;99856.45;1708484;82;20169;-71
2022/10/31 04:21:38;;;;;;;;;;;;;;;8.72;72.28;99856.59;1728166;81;20299;-70
2022/10/31 04:24:07;;;;;;;;;;;;;;;8.76;72.19;99861.12;1723932;80;20874;-71
2022/10/31 04:26:33;;;;;;;;;;;;;;;8.79;72.13;99866.16;1749702;80;20144;-70
2022/10/31 04:29:01;;;;;;;;;;;;;;;8.81;72.02;99876.09;1750350;80;21865;-69
2022/10/31 04:31:28;;;;;;;;;;;;;;;8.83;71.96;99880.27;1736332;80;20179;-69
2022/10/31 04:33:54;;;;;;;;;;;;;;;8.85;71.84;99884.92;1725174;82;20414;-70
2022/10/31 04:36:21;;;;;;;;;;;;;;;8.89;71.83;99892.11;1701180;82;21350;-70
2022/10/31 04:38:48;;;;;;;;;;;;;;;8.89;71.88;99896.90;1725830;82;20430;-70
2022/10/31 04:41:17;;;;;;;;;;;;;;;8.90;71.94;99903.00;1718544;80;21805;-70
2022/10/31 04:43:48;;;;;;;;;;;;;;;8.92;72.03;99894.97;1758733;81;20222;-70
2022/10/31 04:46:14;;;;;;;;;;;;;;;8.94;71.97;99900.95;1751022;80;20164;-70
2022/10/31 04:48:41;;;;;;;;;;;;;;;8.93;71.92;99909.33;1745477;80;21067;-70
2022/10/31 04:51:07;;;;;;;;;;;;;;;8.94;71.92;99914.12;1742845;81;20447;-70
2022/10/31 04:53:34;;;;;;;;;;;;;;;8.95;71.99;99917.94;1750816;80;22680;-70
2022/10/31 04:56:11;;;;;;;;;;;;;;;8.95;71.99;99916.63;1628829;87;20964;-70
2022/10/31 04:58:40;;;;;;;;;;;;;;;8.93;72.13;99922.98;1645878;85;20480;-78
2022/10/31 05:01:09;;;;;;;;;;;;;;;8.92;72.21;99930.05;1673453;85;20458;-70
2022/10/31 05:03:36;;;;;;;;;;;;;;;8.93;72.30;99933.52;1675313;85;20180;-72
2022/10/31 05:06:02;;;;;;;;;;;;;;;8.91;72.39;99931.02;1671580;84;21932;-70
2022/10/31 05:08:29;;;;;;;;;;;;;;;8.89;72.39;99939.04;1682325;85;20184;-70
2022/10/31 05:11:01;;;;;;;;;;;;;;;8.86;72.18;99939.27;1671264;85;20145;-70
2022/10/31 05:13:28;;;;;;;;;;;;;;;8.87;71.72;99941.41;1669151;85;20386;-70
2022/10/31 05:16:09;;;;;;;;;;;;;;;8.87;70.85;99947.52;1670622;84;20152;-71
2022/10/31 05:18:54;;;;;;;;;;;;;;;8.88;69.16;99953.17;1670500;85;21859;-70
2022/10/31 05:21:39;;;;;;;;;;;;;;;8.91;67.66;99956.03;1675980;85;20169;-70
2022/10/31 05:24:09;;;;;;;;;;;;;;;8.93;65.01;99945.38;1677314;85;20134;-71
2022/10/31 05:26:35;;;;;;;;;;;;;;;8.92;62.05;99959.02;1658359;85;20538;-70
2022/10/31 05:29:02;;;;;;;;;;;;;;;8.92;60.93;99968.72;1677029;85;20179;-71
2022/10/31 05:31:28;;;;;;;;;;;;;;;8.93;60.58;99971.71;1678674;85;21787;-72
2022/10/31 05:33:55;;;;;;;;;;;;;;;8.89;59.87;99979.03;1673923;84;20557;-71
2022/10/31 05:36:39;;;;;;;;;;;;;;;8.86;59.93;99993.25;1670305;85;20145;-70
2022/10/31 05:39:13;;;;;;;;;;;;;;;8.84;59.56;99989.07;1677217;85;20171;-70
2022/10/31 05:41:41;;;;;;;;;;;;;;;8.82;59.67;100001.53;1677450;84;21556;-71
2022/10/31 05:44:15;;;;;;;;;;;;;;;8.80;59.12;100002.97;1678327;84;21855;-71
2022/10/31 05:46:46;;;;;;;;;;;;;;;8.79;59.22;100005.72;1676049;85;20847;-70
2022/10/31 05:49:31;;;;;;;;;;;;;;;8.76;58.82;100012.52;1687028;84;20151;-71
2022/10/31 05:52:17;;;;;;;;;;;;;;;8.72;58.75;100017.68;1677476;83;21018;-70
2022/10/31 05:54:46;;;;;;;;;;;;;;;8.71;58.89;100026.06;1676079;84;20392;-70
2022/10/31 05:57:12;;;;;;;;;;;;;;;8.71;58.70;100024.75;1676453;84;21844;-70
2022/10/31 05:59:40;;;;;;;;;;;;;;;8.71;58.70;100022.11;1677568;85;20182;-71
2022/10/31 06:02:06;;;;;;;;;;;;;;;8.72;58.25;100030.84;1676729;85;20146;-70
2022/10/31 10:56:17;;;;;;;1.42;0.57;;;;;;;12.28;35.83;100243.80;1766693;79;22046;-71
2022/10/31 10:58:45;;;;;;;0.80;0.40;;;;;;;12.30;34.65;100249.78;1711346;83;21080;-70
2022/10/31 11:01:13;;;;;;;0.50;0.30;;;;;;;12.22;35.06;100241.68;1710080;83;21842;-72
2022/10/31 11:03:41;;;;;;;1.22;0.70;;;;;;;12.15;34.64;100241.86;1706400;82;21572;-70
2022/10/31 11:06:25;;;;;;;2.12;1.27;;;;;;;12.14;34.98;100253.42;1706461;84;20984;-70
2022/10/31 11:08:49;;;;;;;1.65;0.40;;;;;;;12.22;35.03;100243.00;1705873;83;21004;-71
2022/10/31 11:11:31;;;;;;;0.90;0.42;;;;;;;12.28;34.03;100245.95;1724702;83;21063;-71
2022/10/31 11:14:05;;;;;;;0.93;0.50;;;;;;;12.31;35.15;100252.30;1722817;82;21960;-77
2022/10/31 11:16:40;;;;;;;3.22;0.40;;;;;;;12.51;35.43;100248.36;1668036;84;21024;-71
2022/10/31 11:19:24;;;;;;;3.17;1.37;;;;;;;12.70;35.74;100248.88;1695255;83;21068;-71
2022/10/31 11:21:51;;;;;;;0.98;0.30;;;;;;;12.85;32.66;100244.84;1692977;84;21471;-71
2022/10/31 11:24:27;;;;;;;1.75;0.50;;;;;;;12.78;33.07;100254.32;1692372;84;21575;-70
2022/10/31 11:27:17;;;;;;;0.80;0.40;;;;;;;12.72;33.87;100256.19;1662311;84;21879;-70
2022/10/31 11:29:44;;;;;;;3.35;0.50;;;;;;;12.84;33.66;100250.64;1671738;84;21051;-71
2022/10/31 11:32:24;;;;;;;3.00;0.65;;;;;;;13.01;33.76;100256.19;1692230;84;20968;-71
2022/10/31 11:34:55;;;;;;;0.98;0.50;;;;;;;12.98;33.32;100247.20;1693438;83;21201;-71
2022/10/31 11:37:29;;;;;;;3.58;2.62;;;;;;;12.94;32.88;100240.03;1692792;84;21090;-71
2022/10/31 11:39:59;;;;;;;4.75;1.98;;;;;;;12.86;33.82;100253.98;1692548;84;21858;-71
2022/10/31 11:42:31;;;;;;;0.98;0.42;;;;;;;12.96;34.47;100260.60;1733701;81;20992;-71
2022/10/31 11:44:59;;;;;;;1.90;0.50;;;;;;;13.17;33.71;100261.28;1766342;79;21453;-71
2022/10/31 11:47:29;;;;;;;1.15;0.40;;;;;;;13.22;33.81;100266.67;1781264;80;21548;-70
2022/10/31 11:49:56;;;;;;;0.98;0.50;;;;;;;13.35;33.76;100258.78;1751088;80;21040;-70
2022/10/31 11:52:26;;;;;;;0.40;0.30;;;;;;;13.55;33.53;100268.86;1724759;81;22588;-71
2022/10/31 11:55:32;;;;;;;1.30;0.47;;;;;;;13.57;33.39;100262.08;1722060;82;21515;-71
2022/10/31 11:57:58;;;;;;;1.62;0.40;;;;;;;13.61;32.79;100248.40;1720992;83;20972;-71
2022/10/31 12:00:32;;;;;;;1.22;0.40;;;;;;;13.58;32.94;100255.30;1720969;83;21039;-70
2022/10/31 12:03:25;;;;;;;3.40;0.30;;;;;;;13.58;33.19;100257.95;1721210;83;20989;-71
2022/10/31 12:05:58;;;;;;;3.35;0.72;;;;;;;13.60;32.45;100268.42;1721411;83;21480;-70
2022/10/31 12:08:28;;;;;;;0.98;0.45;;;;;;;13.68;32.97;100268.54;1721103;83;21039;-70
2022/10/31 12:11:10;;;;;;;1.77;0.50;;;;;;;13.64;32.07;100261.86;1722184;81;21012;-70
2022/10/31 12:13:47;;;;;;;1.77;0.40;;;;;;;13.51;32.39;100262.19;1685143;83;21430;-70
2022/10/31 12:16:22;;;;;;;1.45;0.53;;;;;;;13.58;32.90;100267.24;1720553;83;21055;-71
2022/10/31 12:19:23;;;;;;;1.27;0.40;;;;;;;13.86;33.67;100265.97;1702474;83;21849;-70
2022/10/31 12:22:24;;;;;;;0.78;0.50;;;;;;;14.26;33.34;100274.45;1720824;83;21438;-70
2022/10/31 12:25:05;;;;;;;1.07;0.80;;;;;;;14.26;32.64;100277.11;1721031;83;21009;-70
2022/10/31 12:28:27;;;;;;;2.02;0.53;;;;;;;14.39;33.15;100281.27;1721747;81;20961;-71
2022/10/31 12:31:18;;;;;;;1.20;0.60;;;;;;;14.55;31.54;100270.33;1721026;83;21550;-71
2022/10/31 12:34:06;;;;;;;1.55;0.70;;;;;;;14.54;33.04;100278.45;1721044;82;21958;-70
2022/10/31 12:36:56;;;;;;;1.05;0.37;;;;;;;14.89;30.63;100274.51;1715418;83;20965;-71
2022/10/31 12:39:40;;;;;;;2.20;0.40;;;;;;;14.89;30.84;100277.16;1692084;83;21082;-70
2022/10/31 12:42:39;;;;;;;1.40;0.47;;;;;;;14.86;30.26;100281.47;1740015;80;21043;-70
2022/10/31 12:45:20;;;;;;;2.10;0.50;;;;;;;14.65;30.90;100286.70;1753949;81;20976;-70
2022/10/31 12:59:54;;;;;;;2.20;0.50;;;;;;;14.34;30.85;100296.30;1748485;80;21877;-69
2022/10/31 13:02:42;;;;;;;1.90;0.50;;;;;;;14.30;30.99;100302.41;1721833;83;20945;-68
2022/10/31 13:05:32;;;;;;;5.47;0.70;;;;;;;14.39;31.77;100305.17;1723935;82;21932;-69
2022/10/31 13:08:22;;;;;;;5.25;0.90;;;;;;;14.38;30.84;100310.98;1703592;82;20959;-69
2022/10/31 13:11:02;;;;;;;2.92;0.75;;;;;;;14.25;30.87;100309.97;1697706;84;21418;-69
2022/10/31 13:13:55;;;;;;;7.28;1.00;;;;;;;14.20;30.45;100310.92;1716860;83;20968;-69
2022/10/31 13:16:26;;;;;;;2.47;0.70;;;;;;;14.02;31.37;100320.14;1713775;82;21030;-68
2022/10/31 13:18:58;;;;;;;5.53;0.70;;;;;;;13.90;30.97;100323.97;1723429;80;21918;-69
2022/10/31 13:21:32;;;;;;;19.23;1.90;;;;;;;13.92;31.37;100319.34;1700807;80;21016;-69
2022/10/31 13:24:01;;;;;;;12.80;1.42;;;;;;;14.04;31.56;100327.47;1753375;81;20976;-68
2022/10/31 13:26:40;;;;;;;0.85;0.60;;;;;;;14.01;31.57;100335.73;1753218;81;20949;-69
2022/10/31 13:29:33;;;;;;;3.77;0.60;;;;;;;13.97;30.98;100336.16;1752875;81;20992;-69
2022/10/31 13:32:06;;;;;;;3.45;0.70;;;;;;;13.84;31.27;100343.61;1753265;81;21832;-69
2022/10/31 13:34:40;;;;;;;2.65;0.80;;;;;;;13.71;31.32;100347.91;1753373;81;21070;-69
2022/10/31 13:37:34;;;;;;;2.55;0.98;;;;;;;13.88;31.67;100348.47;1753252;81;20944;-69
2022/10/31 13:40:31;;;;;;;2.52;0.70;;;;;;;14.00;31.60;100343.85;1753162;81;21075;-68
2022/10/31 13:43:09;;;;;;;3.00;0.80;;;;;;;14.20;31.76;100350.77;1753611;81;20956;-68
2022/10/31 13:45:36;;;;;;;7.30;0.60;;;;;;;14.34;31.12;100353.42;1752976;81;21857;-68
2022/10/31 13:48:19;;;;;;;4.42;0.70;;;;;;;14.18;30.84;100353.20;1708857;83;21043;-69
2022/10/31 13:51:04;;;;;;;42.85;4.00;;;;;;;13.95;30.80;100360.20;1704572;82;21406;-68
2022/10/31 13:53:53;;;;;;;11.03;1.20;;;;;;;13.72;31.94;100359.70;1703594;84;21447;-68
2022/10/31 13:56:33;;;;;;;4.35;0.85;;;;;;;13.53;31.31;100366.36;1690850;84;21008;-68
2022/10/31 13:59:16;;;;;;;5.58;1.07;;;;;;;13.11;31.91;100373.21;1678601;84;22547;-69
